Time,TemperatureF,DewpointF,PressureIn,WindDirection,WindDirectionDegrees,WindSpeedMPH,WindSpeedGustMPH,Humidity,HourlyPrecipIn,Conditions,Clouds,dailyrainin,SoftwareType,DateUTC
2013-03-14 00:02:00,29.0,25.0,-100.00,South,185,13.0,17.0,84,0.00,,,0.00,,2013-03-14 05:02:00,
2013-03-14 00:12:00,29.0,25.0,-100.00,South,185,12.0,17.0,84,0.00,,,0.00,,2013-03-14 05:12:00,
2013-03-14 00:22:00,29.0,25.0,-100.00,South,185,13.0,16.0,85,0.00,,,0.00,,2013-03-14 05:22:00,
2013-03-14 00:33:00,29.0,25.0,-100.00,South,190,13.0,16.0,85,0.00,,,0.00,,2013-03-14 05:33:00,
2013-03-14 00:42:00,29.0,25.0,-100.00,South,180,12.0,16.0,85,0.00,,,0.00,,2013-03-14 05:42:00,
2013-03-14 00:52:00,29.0,25.0,-100.00,South,185,12.0,16.0,85,0.00,,,0.00,,2013-03-14 05:52:00,
2013-03-14 01:02:00,29.0,25.0,-100.00,South,190,10.0,15.0,85,0.00,,,0.00,,2013-03-14 06:02:00,
2013-03-14 01:12:00,29.0,25.0,-100.00,SSW,195,11.0,14.0,85,0.00,,,0.00,,2013-03-14 06:12:00,
2013-03-14 01:22:00,30.0,27.0,-100.00,SSW,195,13.0,16.0,85,0.00,,,0.00,,2013-03-14 06:22:00,
2013-03-14 01:32:00,30.0,25.0,-100.00,SSW,200,14.0,18.0,85,0.00,,,0.00,,2013-03-14 06:32:00,
2013-03-14 01:42:00,30.0,25.0,-100.00,SSW,200,15.0,18.0,85,0.00,,,0.00,,2013-03-14 06:42:00,
2013-03-14 01:52:00,30.0,25.0,-100.00,SSW,195,17.0,19.0,84,0.00,,,0.00,,2013-03-14 06:52:00,
2013-03-14 02:02:00,30.0,25.0,-100.00,SSW,205,15.0,19.0,84,0.00,,,0.00,,2013-03-14 07:02:00,
2013-03-14 02:12:00,29.0,25.0,-100.00,SSW,210,15.0,20.0,83,0.00,,,0.00,,2013-03-14 07:12:00,
2013-03-14 02:22:00,30.0,25.0,-100.00,SSW,210,13.0,18.0,83,0.00,,,0.00,,2013-03-14 07:22:00,
2013-03-14 02:32:00,30.0,25.0,-100.00,SSW,210,15.0,17.0,83,0.00,,,0.00,,2013-03-14 07:32:00,
2013-03-14 02:42:00,30.0,25.0,-100.00,SSW,210,14.0,18.0,83,0.00,,,0.00,,2013-03-14 07:42:00,
2013-03-14 02:52:00,30.0,25.0,-100.00,SSW,205,16.0,19.0,83,0.00,,,0.00,,2013-03-14 07:52:00,
2013-03-14 03:02:00,30.0,27.0,-100.00,SSW,205,15.0,18.0,83,0.00,,,0.00,,2013-03-14 08:02:00,
2013-03-14 03:12:00,30.0,27.0,-100.00,SSW,200,12.0,17.0,83,0.00,,,0.00,,2013-03-14 08:12:00,
2013-03-14 03:21:00,31.0,27.0,-100.00,SSW,205,9.0,15.0,83,0.00,,,0.00,,2013-03-14 08:21:00,
2013-03-14 03:32:00,31.0,27.0,-100.00,SSW,210,11.0,14.0,83,0.00,,,0.00,,2013-03-14 08:32:00,
2013-03-14 03:41:00,31.0,27.0,-100.00,SSW,195,12.0,14.0,84,0.00,,,0.00,,2013-03-14 08:41:00,
2013-03-14 03:51:00,31.0,27.0,-100.00,SSW,195,14.0,16.0,84,0.00,,,0.00,,2013-03-14 08:51:00,
2013-03-14 04:01:00,31.0,27.0,-100.00,SSW,195,11.0,16.0,84,0.00,,,0.00,,2013-03-14 09:01:00,
2013-03-14 04:12:00,31.0,27.0,-100.00,SSW,200,9.0,12.0,84,0.00,,,0.00,,2013-03-14 09:12:00,
2013-03-14 04:22:00,31.0,27.0,-100.00,SSW,205,12.0,14.0,84,0.00,,,0.00,,2013-03-14 09:22:00,
2013-03-14 04:32:00,31.0,27.0,-100.00,SSW,205,15.0,19.0,84,0.00,,,0.00,,2013-03-14 09:32:00,
2013-03-14 04:42:00,32.0,27.0,-100.00,SSW,210,16.0,18.0,84,0.00,,,0.00,,2013-03-14 09:42:00,
2013-03-14 04:52:00,32.0,28.0,-100.00,SW,220,11.0,17.0,84,0.00,,,0.00,,2013-03-14 09:52:00,
2013-03-14 05:02:00,32.0,27.0,-100.00,SW,225,9.0,16.0,84,0.00,,,0.00,,2013-03-14 10:02:00,
2013-03-14 05:12:00,32.0,27.0,-100.00,SSW,210,6.0,11.0,83,0.00,,,0.00,,2013-03-14 10:12:00,
2013-03-14 05:22:00,31.0,27.0,-100.00,SSW,210,6.0,9.0,84,0.00,,,0.00,,2013-03-14 10:22:00,
2013-03-14 05:32:00,31.0,27.0,-100.00,SSW,205,7.0,9.0,84,0.00,,,0.00,,2013-03-14 10:32:00,
2013-03-14 05:42:00,31.0,27.0,-100.00,SSW,205,6.0,10.0,85,0.00,,,0.00,,2013-03-14 10:42:00,
2013-03-14 05:52:00,31.0,27.0,-100.00,SSW,200,9.0,10.0,86,0.00,,,0.00,,2013-03-14 10:52:00,
2013-03-14 06:02:00,31.0,27.0,-100.00,SW,220,4.0,10.0,87,0.00,,,0.00,,2013-03-14 11:02:00,
2013-03-14 06:12:00,30.0,27.0,-100.00,SSW,210,5.0,7.0,87,0.00,,,0.00,,2013-03-14 11:12:00,
2013-03-14 06:22:00,30.0,27.0,-100.00,SSW,205,6.0,7.0,87,0.00,,,0.00,,2013-03-14 11:22:00,
2013-03-14 06:33:00,29.0,27.0,-100.00,SW,220,6.0,10.0,89,0.00,,,0.00,,2013-03-14 11:33:00,
2013-03-14 06:42:00,29.0,27.0,-100.00,SW,225,4.0,7.0,89,0.00,,,0.00,,2013-03-14 11:42:00,
2013-03-14 06:52:00,29.0,27.0,-100.00,SW,225,0.0,3.0,90,0.00,,,0.00,,2013-03-14 11:52:00,
2013-03-14 07:02:00,29.0,27.0,-100.00,SSE,165,0.0,2.0,91,0.00,,,0.00,,2013-03-14 12:02:00,
2013-03-14 07:12:00,29.0,27.0,-100.00,SSW,195,2.0,3.0,91,0.00,,,0.00,,2013-03-14 12:12:00,
2013-03-14 07:22:00,28.0,27.0,-100.00,WSW,240,2.0,3.0,91,0.00,,,0.00,,2013-03-14 12:22:00,
2013-03-14 07:33:00,28.0,25.0,-100.00,SW,225,2.0,3.0,92,0.00,,,0.00,,2013-03-14 12:33:00,
2013-03-14 07:42:00,27.0,25.0,-100.00,SW,220,3.0,4.0,92,0.00,,,0.00,,2013-03-14 12:42:00,
2013-03-14 07:52:00,27.0,25.0,-100.00,WSW,240,3.0,4.0,93,0.00,,,0.00,,2013-03-14 12:52:00,
2013-03-14 08:02:00,28.0,27.0,-100.00,WSW,245,0.0,3.0,94,0.00,,,0.00,,2013-03-14 13:02:00,
2013-03-14 08:12:00,28.0,27.0,-100.00,WSW,245,1.0,2.0,94,0.00,,,0.00,,2013-03-14 13:12:00,
2013-03-14 08:22:00,28.0,27.0,-100.00,WSW,255,0.0,1.0,94,0.00,,,0.00,,2013-03-14 13:22:00,
2013-03-14 08:32:00,29.0,27.0,-100.00,SE,130,1.0,1.0,94,0.00,,,0.00,,2013-03-14 13:32:00,
2013-03-14 08:42:00,29.0,27.0,-100.00,NE,40,2.0,6.0,95,0.00,,,0.00,,2013-03-14 13:42:00,
2013-03-14 08:52:00,30.0,28.0,-100.00,ENE,75,0.0,4.0,95,0.00,,,0.00,,2013-03-14 13:52:00,
2013-03-14 09:02:00,31.0,30.0,-100.00,NW,310,1.0,2.0,94,0.00,,,0.00,,2013-03-14 14:02:00,
2013-03-14 09:12:00,31.0,30.0,-100.00,NW,320,1.0,3.0,94,0.00,,,0.00,,2013-03-14 14:12:00,
2013-03-14 09:22:00,33.0,30.0,-100.00,NNW,330,0.0,2.0,92,0.00,,,0.00,,2013-03-14 14:22:00,
2013-03-14 09:32:00,34.0,32.0,-100.00,NNW,330,1.0,3.0,90,0.00,,,0.00,,2013-03-14 14:32:00,
2013-03-14 09:42:00,35.0,32.0,-100.00,NW,315,2.0,5.0,87,0.00,,,0.00,,2013-03-14 14:42:00,
2013-03-14 09:52:00,35.0,30.0,-100.00,NNW,330,4.0,6.0,84,0.00,,,0.00,,2013-03-14 14:52:00,
2013-03-14 10:02:00,36.0,32.0,-100.00,NNW,340,2.0,6.0,82,0.00,,,0.00,,2013-03-14 15:02:00,
2013-03-14 10:12:00,38.0,32.0,-100.00,NNW,345,7.0,9.0,80,0.00,,,0.00,,2013-03-14 15:12:00,
2013-03-14 10:22:00,38.0,32.0,-100.00,NNW,345,9.0,12.0,79,0.00,,,0.00,,2013-03-14 15:22:00,
2013-03-14 10:32:00,39.0,32.0,-100.00,North,355,10.0,12.0,78,0.00,,,0.00,,2013-03-14 15:32:00,
2013-03-14 10:42:00,39.0,34.0,-100.00,North,350,9.0,12.0,77,0.00,,,0.00,,2013-03-14 15:42:00,
2013-03-14 10:52:00,40.0,34.0,-100.00,North,355,7.0,11.0,76,0.00,,,0.00,,2013-03-14 15:52:00,
2013-03-14 11:03:00,40.0,34.0,-100.00,North,355,11.0,13.0,76,0.00,,,0.00,,2013-03-14 16:03:00,
2013-03-14 11:12:00,40.0,34.0,-100.00,North,350,11.0,13.0,76,0.00,,,0.00,,2013-03-14 16:12:00,
2013-03-14 11:22:00,41.0,34.0,-100.00,North,0,10.0,16.0,76,0.00,,,0.00,,2013-03-14 16:22:00,
2013-03-14 11:32:00,41.0,34.0,-100.00,North,5,11.0,14.0,75,0.00,,,0.00,,2013-03-14 16:32:00,
2013-03-14 11:42:00,42.0,34.0,-100.00,North,355,10.0,14.0,75,0.00,,,0.00,,2013-03-14 16:42:00,
2013-03-14 11:52:00,42.0,36.0,-100.00,North,355,9.0,14.0,75,0.00,,,0.00,,2013-03-14 16:52:00,
2013-03-14 12:02:00,43.0,36.0,-100.00,North,0,9.0,12.0,74,0.00,,,0.00,,2013-03-14 17:02:00,
2013-03-14 12:12:00,43.0,36.0,-100.00,North,0,8.0,14.0,74,0.00,,,0.00,,2013-03-14 17:12:00,
2013-03-14 12:23:00,42.0,36.0,-100.00,North,355,12.0,14.0,74,0.00,,,0.00,,2013-03-14 17:23:00,
2013-03-14 12:32:00,43.0,36.0,-100.00,North,355,12.0,14.0,74,0.00,,,0.00,,2013-03-14 17:32:00,
2013-03-14 12:42:00,44.0,36.0,-100.00,NNW,340,11.0,14.0,74,0.00,,,0.00,,2013-03-14 17:42:00,
2013-03-14 12:52:00,44.0,36.0,-100.00,North,350,9.0,13.0,74,0.00,,,0.00,,2013-03-14 17:52:00,
2013-03-14 13:02:00,44.0,36.0,-100.00,North,350,9.0,13.0,73,0.00,,,0.00,,2013-03-14 18:02:00,
2013-03-14 13:12:00,44.0,36.0,-100.00,NNW,345,10.0,13.0,72,0.00,,,0.00,,2013-03-14 18:12:00,
2013-03-14 13:22:00,45.0,36.0,-100.00,North,350,9.0,12.0,70,0.00,,,0.00,,2013-03-14 18:22:00,
2013-03-14 13:32:00,45.0,36.0,-100.00,North,355,11.0,14.0,70,0.00,,,0.00,,2013-03-14 18:32:00,
2013-03-14 13:42:00,46.0,37.0,-100.00,NNW,340,6.0,12.0,70,0.00,,,0.00,,2013-03-14 18:42:00,
2013-03-14 13:52:00,46.0,37.0,-100.00,North,350,9.0,12.0,70,0.00,,,0.00,,2013-03-14 18:52:00,
2013-03-14 14:02:00,46.0,36.0,-100.00,North,0,10.0,13.0,68,0.00,,,0.00,,2013-03-14 19:02:00,
2013-03-14 14:12:00,46.0,37.0,-100.00,North,355,9.0,12.0,70,0.00,,,0.00,,2013-03-14 19:12:00,
2013-03-14 14:22:00,46.0,37.0,-100.00,NNW,340,9.0,12.0,69,0.00,,,0.00,,2013-03-14 19:22:00,
2013-03-14 14:32:00,47.0,37.0,-100.00,North,0,8.0,12.0,68,0.00,,,0.00,,2013-03-14 19:32:00,
2013-03-14 14:42:00,47.0,37.0,-100.00,NNW,345,9.0,11.0,68,0.00,,,0.00,,2013-03-14 19:42:00,
2013-03-14 14:52:00,48.0,37.0,-100.00,North,355,7.0,11.0,68,0.00,,,0.00,,2013-03-14 19:52:00,
2013-03-14 15:02:00,48.0,39.0,-100.00,NNW,335,7.0,11.0,69,0.00,,,0.00,,2013-03-14 20:02:00,
2013-03-14 15:11:00,48.0,39.0,-100.00,North,0,9.0,11.0,69,0.00,,,0.00,,2013-03-14 20:11:00,
2013-03-14 15:22:00,48.0,37.0,-100.00,North,350,9.0,11.0,67,0.00,,,0.00,,2013-03-14 20:22:00,
2013-03-14 15:32:00,49.0,39.0,-100.00,North,0,6.0,10.0,68,0.00,,,0.00,,2013-03-14 20:32:00,
2013-03-14 15:42:00,49.0,39.0,-100.00,NNW,340,7.0,9.0,67,0.00,,,0.00,,2013-03-14 20:42:00,
2013-03-14 15:52:00,49.0,39.0,-100.00,NNW,345,8.0,12.0,66,0.00,,,0.00,,2013-03-14 20:52:00,
2013-03-14 16:02:00,50.0,39.0,-100.00,NW,320,8.0,11.0,67,0.00,,,0.00,,2013-03-14 21:02:00,
2013-03-14 16:12:00,49.0,39.0,-100.00,NW,320,9.0,12.0,66,0.00,,,0.00,,2013-03-14 21:12:00,
2013-03-14 16:22:00,49.0,39.0,-100.00,NW,325,9.0,12.0,66,0.00,,,0.00,,2013-03-14 21:22:00,
2013-03-14 16:32:00,49.0,39.0,-100.00,NNW,335,10.0,12.0,67,0.00,,,0.00,,2013-03-14 21:32:00,
2013-03-14 16:43:00,49.0,39.0,-100.00,NNW,335,9.0,12.0,67,0.00,,,0.00,,2013-03-14 21:43:00,
2013-03-14 16:52:00,49.0,39.0,-100.00,NNW,335,12.0,14.0,67,0.00,,,0.00,,2013-03-14 21:52:00,
2013-03-14 17:03:00,50.0,41.0,-100.00,NW,320,10.0,12.0,68,0.00,,,0.00,,2013-03-14 22:03:00,
2013-03-14 17:12:00,50.0,39.0,-100.00,NNW,340,9.0,12.0,67,0.00,,,0.00,,2013-03-14 22:12:00,
2013-03-14 17:23:00,50.0,41.0,-100.00,NNW,340,7.0,12.0,67,0.00,,,0.00,,2013-03-14 22:23:00,
2013-03-14 17:33:00,50.0,41.0,-100.00,NNW,340,6.0,12.0,68,0.00,,,0.00,,2013-03-14 22:33:00,
2013-03-14 17:42:00,50.0,41.0,-100.00,NNW,340,7.0,10.0,70,0.00,,,0.00,,2013-03-14 22:42:00,
2013-03-14 17:52:00,50.0,41.0,-100.00,NNW,330,9.0,11.0,70,0.00,,,0.00,,2013-03-14 22:52:00,
2013-03-14 18:02:00,50.0,41.0,-100.00,NW,320,7.0,9.0,71,0.00,,,0.00,,2013-03-14 23:02:00,
2013-03-14 18:12:00,50.0,41.0,-100.00,NW,325,7.0,11.0,71,0.00,,,0.00,,2013-03-14 23:12:00,
2013-03-14 18:22:00,50.0,41.0,-100.00,NNW,330,5.0,6.0,72,0.00,,,0.00,,2013-03-14 23:22:00,
2013-03-14 18:33:00,49.0,41.0,-100.00,NW,325,6.0,8.0,72,0.00,,,0.00,,2013-03-14 23:33:00,
2013-03-14 18:42:00,48.0,41.0,-100.00,NNW,335,6.0,7.0,73,0.00,,,0.00,,2013-03-14 23:42:00,
2013-03-14 18:53:00,48.0,39.0,-100.00,NNW,335,6.0,6.0,74,0.00,,,0.00,,2013-03-14 23:53:00,
2013-03-14 19:02:00,47.0,41.0,-100.00,NW,325,5.0,6.0,76,0.00,,,0.00,,2013-03-15 00:02:00,
2013-03-14 19:12:00,47.0,41.0,-100.00,NNW,330,3.0,6.0,76,0.00,,,0.00,,2013-03-15 00:12:00,
2013-03-14 19:22:00,46.0,41.0,-100.00,NNE,20,1.0,2.0,78,0.00,,,0.00,,2013-03-15 00:22:00,
2013-03-14 19:32:00,46.0,41.0,-100.00,NNW,335,1.0,2.0,79,0.00,,,0.00,,2013-03-15 00:32:00,
2013-03-14 19:42:00,45.0,39.0,-100.00,WNW,295,1.0,2.0,79,0.00,,,0.00,,2013-03-15 00:42:00,
2013-03-14 19:52:00,43.0,37.0,-100.00,SW,220,0.0,1.0,80,0.00,,,0.00,,2013-03-15 00:52:00,
2013-03-14 20:02:00,44.0,39.0,-100.00,NNW,330,2.0,2.0,83,0.00,,,0.00,,2013-03-15 01:02:00,
2013-03-14 20:11:00,43.0,39.0,-100.00,NW,325,2.0,4.0,86,0.00,,,0.00,,2013-03-15 01:11:00,
2013-03-14 20:22:00,40.0,37.0,-100.00,NW,315,0.0,2.0,87,0.00,,,0.00,,2013-03-15 01:22:00,
2013-03-14 20:32:00,40.0,37.0,-100.00,NW,310,0.0,1.0,89,0.00,,,0.00,,2013-03-15 01:32:00,
2013-03-14 20:42:00,39.0,36.0,-100.00,SSW,205,1.0,2.0,90,0.00,,,0.00,,2013-03-15 01:42:00,
2013-03-14 20:52:00,39.0,36.0,-100.00,SSW,195,1.0,1.0,91,0.00,,,0.00,,2013-03-15 01:52:00,
2013-03-14 21:02:00,38.0,37.0,-100.00,North,5,0.0,1.0,92,0.00,,,0.00,,2013-03-15 02:02:00,
2013-03-14 21:12:00,38.0,36.0,-100.00,WSW,240,0.0,0.0,92,0.00,,,0.00,,2013-03-15 02:12:00,
2013-03-14 21:22:00,37.0,36.0,-100.00,SW,215,0.0,0.0,94,0.00,,,0.00,,2013-03-15 02:22:00,
2013-03-14 21:32:00,36.0,36.0,-100.00,SSW,200,1.0,1.0,95,0.00,,,0.00,,2013-03-15 02:32:00,
2013-03-14 21:42:00,37.0,36.0,-100.00,West,260,1.0,1.0,95,0.00,,,0.00,,2013-03-15 02:42:00,
2013-03-14 21:52:00,36.0,36.0,-100.00,SSW,210,1.0,1.0,96,0.00,,,0.00,,2013-03-15 02:52:00,
2013-03-14 22:02:00,36.0,36.0,-100.00,WSW,250,0.0,1.0,96,0.00,,,0.00,,2013-03-15 03:02:00,
2013-03-14 22:12:00,35.0,34.0,-100.00,South,185,1.0,2.0,97,0.00,,,0.00,,2013-03-15 03:12:00,
2013-03-14 22:22:00,36.0,36.0,-100.00,South,185,1.0,2.0,97,0.00,,,0.00,,2013-03-15 03:22:00,
2013-03-14 22:33:00,36.0,36.0,-100.00,SSW,195,2.0,3.0,97,0.00,,,0.00,,2013-03-15 03:33:00,
2013-03-14 22:42:00,36.0,36.0,-100.00,South,185,0.0,4.0,98,0.00,,,0.00,,2013-03-15 03:42:00,
2013-03-14 22:52:00,35.0,34.0,-100.00,SE,140,1.0,1.0,98,0.00,,,0.00,,2013-03-15 03:52:00,
2013-03-14 23:03:00,35.0,34.0,-100.00,SSW,205,1.0,1.0,98,0.00,,,0.00,,2013-03-15 04:03:00,
2013-03-14 23:12:00,35.0,34.0,-100.00,South,180,1.0,1.0,98,0.00,,,0.00,,2013-03-15 04:12:00,
2013-03-14 23:22:00,33.0,32.0,-100.00,North,5,0.0,0.0,99,0.00,,,0.00,,2013-03-15 04:22:00,
2013-03-14 23:32:00,33.0,32.0,-100.00,SSE,155,0.0,0.0,99,0.00,,,0.00,,2013-03-15 04:32:00,
2013-03-14 23:52:00,32.0,32.0,-100.00,East,80,2.0,2.0,99,0.00,,,0.00,,2013-03-15 04:52:00,